sensor_id;sensor_type;location;lat;lon;timestamp;temperature;humidity
6788;DHT22;3431;47.966;10.268;2023-06-26T00:00:06;17.40;92.20
6788;DHT22;3431;47.966;10.268;2023-06-26T00:00:29;17.40;92.30
6788;DHT22;3431;47.966;10.268;2023-06-26T00:00:50;17.40;92.30
6788;DHT22;3431;47.966;10.268;2023-06-26T00:01:13;17.40;92.40
6788;DHT22;3431;47.966;10.268;2023-06-26T00:01:35;17.40;92.40
6788;DHT22;3431;47.966;10.268;2023-06-26T00:01:56;17.40;92.40
6788;DHT22;3431;47.966;10.268;2023-06-26T00:02:18;17.40;92.40
6788;DHT22;3431;47.966;10.268;2023-06-26T00:02:40;17.40;92.50
6788;DHT22;3431;47.966;10.268;2023-06-26T00:03:02;17.40;92.50
6788;DHT22;3431;47.966;10.268;2023-06-26T00:03:24;17.40;92.50
6788;DHT22;3431;47.966;10.268;2023-06-26T00:03:45;17.40;92.50
6788;DHT22;3431;47.966;10.268;2023-06-26T00:04:08;17.30;92.40
6788;DHT22;3431;47.966;10.268;2023-06-26T00:04:35;17.40;92.50
6788;DHT22;3431;47.966;10.268;2023-06-26T00:05:00;17.30;92.50
6788;DHT22;3431;47.966;10.268;2023-06-26T00:05:23;17.30;92.80
6788;DHT22;3431;47.966;10.268;2023-06-26T00:05:46;17.30;92.50
6788;DHT22;3431;47.966;10.268;2023-06-26T00:06:07;17.30;92.50
6788;DHT22;3431;47.966;10.268;2023-06-26T00:06:29;17.30;92.50
6788;DHT22;3431;47.966;10.268;2023-06-26T00:06:50;17.30;92.50
6788;DHT22;3431;47.966;10.268;2023-06-26T00:07:12;17.30;92.50
6788;DHT22;3431;47.966;10.268;2023-06-26T00:07:34;17.30;92.60
6788;DHT22;3431;47.966;10.268;2023-06-26T00:07:56;17.30;92.60
6788;DHT22;3431;47.966;10.268;2023-06-26T00:08:21;17.30;92.60
6788;DHT22;3431;47.966;10.268;2023-06-26T00:08:43;17.20;92.90
6788;DHT22;3431;47.966;10.268;2023-06-26T00:09:05;17.20;92.60
6788;DHT22;3431;47.966;10.268;2023-06-26T00:09:27;17.20;92.70
6788;DHT22;3431;47.966;10.268;2023-06-26T00:09:50;17.20;92.70
6788;DHT22;3431;47.966;10.268;2023-06-26T00:10:11;17.20;92.70
6788;DHT22;3431;47.966;10.268;2023-06-26T00:10:34;17.20;92.80
6788;DHT22;3431;47.966;10.268;2023-06-26T00:10:55;17.20;92.80
6788;DHT22;3431;47.966;10.268;2023-06-26T00:11:17;17.20;93.10
6788;DHT22;3431;47.966;10.268;2023-06-26T00:11:39;17.10;92.80
6788;DHT22;3431;47.966;10.268;2023-06-26T00:12:00;17.20;92.90
6788;DHT22;3431;47.966;10.268;2023-06-26T00:12:23;17.10;92.90
6788;DHT22;3431;47.966;10.268;2023-06-26T00:12:44;17.10;92.90
6788;DHT22;3431;47.966;10.268;2023-06-26T00:13:06;17.10;92.90
6788;DHT22;3431;47.966;10.268;2023-06-26T00:13:27;17.10;93.00
6788;DHT22;3431;47.966;10.268;2023-06-26T00:13:50;17.10;93.00
6788;DHT22;3431;47.966;10.268;2023-06-26T00:14:12;17.10;93.00
6788;DHT22;3431;47.966;10.268;2023-06-26T00:14:33;17.10;93.10
6788;DHT22;3431;47.966;10.268;2023-06-26T00:14:55;17.10;93.10
6788;DHT22;3431;47.966;10.268;2023-06-26T00:15:18;17.00;93.00
6788;DHT22;3431;47.966;10.268;2023-06-26T00:15:39;17.10;93.10
6788;DHT22;3431;47.966;10.268;2023-06-26T00:16:01;17.00;93.10
6788;DHT22;3431;47.966;10.268;2023-06-26T00:16:24;17.00;93.10
6788;DHT22;3431;47.966;10.268;2023-06-26T00:16:47;17.00;93.10
6788;DHT22;3431;47.966;10.268;2023-06-26T00:17:11;17.00;93.10
6788;DHT22;3431;47.966;10.268;2023-06-26T00:17:33;17.00;93.20
6788;DHT22;3431;47.966;10.268;2023-06-26T00:17:58;17.00;93.20
6788;DHT22;3431;47.966;10.268;2023-06-26T00:18:20;17.00;93.20
6788;DHT22;3431;47.966;10.268;2023-06-26T00:18:42;17.00;93.20
6788;DHT22;3431;47.966;10.268;2023-06-26T00:19:04;17.00;93.20
6788;DHT22;3431;47.966;10.268;2023-06-26T00:19:25;17.00;93.20
6788;DHT22;3431;47.966;10.268;2023-06-26T00:19:48;17.00;93.20
6788;DHT22;3431;47.966;10.268;2023-06-26T00:20:11;17.00;93.20
6788;DHT22;3431;47.966;10.268;2023-06-26T00:20:35;17.00;93.30
6788;DHT22;3431;47.966;10.268;2023-06-26T00:20:58;17.00;93.30
6788;DHT22;3431;47.966;10.268;2023-06-26T00:21:19;16.90;93.20
6788;DHT22;3431;47.966;10.268;2023-06-26T00:21:41;16.90;93.00
6788;DHT22;3431;47.966;10.268;2023-06-26T00:22:08;16.90;93.30
6788;DHT22;3431;47.966;10.268;2023-06-26T00:22:31;16.90;93.30
6788;DHT22;3431;47.966;10.268;2023-06-26T00:22:53;16.90;93.30
6788;DHT22;3431;47.966;10.268;2023-06-26T00:23:17;16.90;93.30
6788;DHT22;3431;47.966;10.268;2023-06-26T00:23:38;16.90;93.30
6788;DHT22;3431;47.966;10.268;2023-06-26T00:24:00;16.90;93.30
6788;DHT22;3431;47.966;10.268;2023-06-26T00:24:22;16.90;93.30
6788;DHT22;3431;47.966;10.268;2023-06-26T00:24:44;16.90;93.30
6788;DHT22;3431;47.966;10.268;2023-06-26T00:25:06;16.90;93.30
6788;DHT22;3431;47.966;10.268;2023-06-26T00:25:28;16.90;93.30
6788;DHT22;3431;47.966;10.268;2023-06-26T00:25:49;16.90;93.30
6788;DHT22;3431;47.966;10.268;2023-06-26T00:26:12;16.90;93.40
6788;DHT22;3431;47.966;10.268;2023-06-26T00:26:34;16.90;93.40
6788;DHT22;3431;47.966;10.268;2023-06-26T00:26:55;16.90;93.40
6788;DHT22;3431;47.966;10.268;2023-06-26T00:27:17;16.90;93.70
6788;DHT22;3431;47.966;10.268;2023-06-26T00:27:40;16.90;93.40
6788;DHT22;3431;47.966;10.268;2023-06-26T00:28:01;16.90;93.40
6788;DHT22;3431;47.966;10.268;2023-06-26T00:28:45;16.90;93.30
6788;DHT22;3431;47.966;10.268;2023-06-26T00:29:07;16.90;93.60
6788;DHT22;3431;47.966;10.268;2023-06-26T00:29:29;16.80;93.60
6788;DHT22;3431;47.966;10.268;2023-06-26T00:29:52;16.80;93.60
6788;DHT22;3431;47.966;10.268;2023-06-26T00:30:14;16.80;93.70
6788;DHT22;3431;47.966;10.268;2023-06-26T00:30:37;16.80;93.70
6788;DHT22;3431;47.966;10.268;2023-06-26T00:30:58;16.80;93.70
6788;DHT22;3431;47.966;10.268;2023-06-26T00:31:20;16.80;93.80
6788;DHT22;3431;47.966;10.268;2023-06-26T00:31:42;16.80;93.80
6788;DHT22;3431;47.966;10.268;2023-06-26T00:32:04;16.80;93.80
6788;DHT22;3431;47.966;10.268;2023-06-26T00:32:28;16.80;94.20
6788;DHT22;3431;47.966;10.268;2023-06-26T00:32:50;16.80;93.90
6788;DHT22;3431;47.966;10.268;2023-06-26T00:33:12;16.80;93.90
6788;DHT22;3431;47.966;10.268;2023-06-26T00:33:34;16.70;93.90
6788;DHT22;3431;47.966;10.268;2023-06-26T00:33:56;16.70;93.90
6788;DHT22;3431;47.966;10.268;2023-06-26T00:34:19;16.70;94.00
6788;DHT22;3431;47.966;10.268;2023-06-26T00:34:41;16.70;94.00
6788;DHT22;3431;47.966;10.268;2023-06-26T00:35:04;16.70;94.00
6788;DHT22;3431;47.966;10.268;2023-06-26T00:35:28;16.70;94.00
6788;DHT22;3431;47.966;10.268;2023-06-26T00:35:49;16.70;94.10
6788;DHT22;3431;47.966;10.268;2023-06-26T00:36:11;16.70;94.10
6788;DHT22;3431;47.966;10.268;2023-06-26T00:36:32;16.70;94.10
6788;DHT22;3431;47.966;10.268;2023-06-26T00:36:55;16.70;94.10
6788;DHT22;3431;47.966;10.268;2023-06-26T00:37:17;16.70;94.10
6788;DHT22;3431;47.966;10.268;2023-06-26T00:37:38;16.90;94.30
6788;DHT22;3431;47.966;10.268;2023-06-26T00:38:00;16.70;94.20
6788;DHT22;3431;47.966;10.268;2023-06-26T00:38:22;16.70;94.50
6788;DHT22;3431;47.966;10.268;2023-06-26T00:38:44;16.60;94.20
6788;DHT22;3431;47.966;10.268;2023-06-26T00:39:05;16.60;94.20
6788;DHT22;3431;47.966;10.268;2023-06-26T00:39:29;16.60;94.20
6788;DHT22;3431;47.966;10.268;2023-06-26T00:39:51;16.60;94.50
6788;DHT22;3431;47.966;10.268;2023-06-26T00:40:13;16.60;94.30
6788;DHT22;3431;47.966;10.268;2023-06-26T00:40:34;16.60;94.30
6788;DHT22;3431;47.966;10.268;2023-06-26T00:40:56;16.60;94.20
6788;DHT22;3431;47.966;10.268;2023-06-26T00:41:19;16.60;94.20
6788;DHT22;3431;47.966;10.268;2023-06-26T00:41:41;16.60;94.20
6788;DHT22;3431;47.966;10.268;2023-06-26T00:42:02;16.60;94.30
6788;DHT22;3431;47.966;10.268;2023-06-26T00:42:24;16.60;94.30
6788;DHT22;3431;47.966;10.268;2023-06-26T00:42:46;16.60;94.30
6788;DHT22;3431;47.966;10.268;2023-06-26T00:43:09;16.60;94.30
6788;DHT22;3431;47.966;10.268;2023-06-26T00:43:31;16.60;94.30
6788;DHT22;3431;47.966;10.268;2023-06-26T00:43:52;16.60;94.30
6788;DHT22;3431;47.966;10.268;2023-06-26T00:44:15;16.60;94.30
6788;DHT22;3431;47.966;10.268;2023-06-26T00:44:36;16.60;94.40
6788;DHT22;3431;47.966;10.268;2023-06-26T00:44:58;16.60;94.40
6788;DHT22;3431;47.966;10.268;2023-06-26T00:45:20;16.60;94.40
6788;DHT22;3431;47.966;10.268;2023-06-26T00:45:42;16.60;94.40
6788;DHT22;3431;47.966;10.268;2023-06-26T00:46:04;16.60;94.40
6788;DHT22;3431;47.966;10.268;2023-06-26T00:46:25;16.50;94.40
6788;DHT22;3431;47.966;10.268;2023-06-26T00:46:47;16.60;94.40
6788;DHT22;3431;47.966;10.268;2023-06-26T00:47:11;16.50;94.40
6788;DHT22;3431;47.966;10.268;2023-06-26T00:47:36;16.50;94.50
6788;DHT22;3431;47.966;10.268;2023-06-26T00:47:58;16.50;94.50
6788;DHT22;3431;47.966;10.268;2023-06-26T00:48:20;16.50;94.50
6788;DHT22;3431;47.966;10.268;2023-06-26T00:48:43;16.50;94.50
6788;DHT22;3431;47.966;10.268;2023-06-26T00:49:05;16.50;94.60
6788;DHT22;3431;47.966;10.268;2023-06-26T00:49:27;16.50;94.60
6788;DHT22;3431;47.966;10.268;2023-06-26T00:49:49;16.50;94.60
6788;DHT22;3431;47.966;10.268;2023-06-26T00:50:11;16.50;94.60
6788;DHT22;3431;47.966;10.268;2023-06-26T00:50:35;16.50;94.60
6788;DHT22;3431;47.966;10.268;2023-06-26T00:50:57;16.50;94.60
6788;DHT22;3431;47.966;10.268;2023-06-26T00:51:19;16.50;94.60
6788;DHT22;3431;47.966;10.268;2023-06-26T00:51:41;16.50;94.60
6788;DHT22;3431;47.966;10.268;2023-06-26T00:52:03;16.50;94.60
6788;DHT22;3431;47.966;10.268;2023-06-26T00:52:26;16.50;94.60
6788;DHT22;3431;47.966;10.268;2023-06-26T00:52:48;16.50;94.60
6788;DHT22;3431;47.966;10.268;2023-06-26T00:53:09;16.50;94.60
6788;DHT22;3431;47.966;10.268;2023-06-26T00:53:32;16.50;94.60
6788;DHT22;3431;47.966;10.268;2023-06-26T00:53:55;16.50;94.60
6788;DHT22;3431;47.966;10.268;2023-06-26T00:54:17;16.50;94.60
6788;DHT22;3431;47.966;10.268;2023-06-26T00:54:41;16.50;94.60
6788;DHT22;3431;47.966;10.268;2023-06-26T00:55:05;16.50;94.60
6788;DHT22;3431;47.966;10.268;2023-06-26T00:55:29;16.50;94.70
6788;DHT22;3431;47.966;10.268;2023-06-26T00:55:51;16.50;94.70
6788;DHT22;3431;47.966;10.268;2023-06-26T00:56:12;16.50;94.70
6788;DHT22;3431;47.966;10.268;2023-06-26T00:56:35;16.50;94.70
6788;DHT22;3431;47.966;10.268;2023-06-26T00:57:00;16.50;94.80
6788;DHT22;3431;47.966;10.268;2023-06-26T00:57:22;16.50;94.80
6788;DHT22;3431;47.966;10.268;2023-06-26T00:57:43;16.50;94.80
6788;DHT22;3431;47.966;10.268;2023-06-26T00:58:07;16.50;94.80
6788;DHT22;3431;47.966;10.268;2023-06-26T00:58:29;16.40;94.80
6788;DHT22;3431;47.966;10.268;2023-06-26T00:58:52;16.40;94.90
6788;DHT22;3431;47.966;10.268;2023-06-26T00:59:14;16.40;94.90
6788;DHT22;3431;47.966;10.268;2023-06-26T00:59:36;16.40;94.90
6788;DHT22;3431;47.966;10.268;2023-06-26T01:00:01;16.40;94.90
6788;DHT22;3431;47.966;10.268;2023-06-26T01:00:22;16.40;94.90
6788;DHT22;3431;47.966;10.268;2023-06-26T01:00:44;16.40;94.90
6788;DHT22;3431;47.966;10.268;2023-06-26T01:01:06;16.40;94.90
6788;DHT22;3431;47.966;10.268;2023-06-26T01:01:30;16.40;94.90
6788;DHT22;3431;47.966;10.268;2023-06-26T01:01:51;16.50;94.90
6788;DHT22;3431;47.966;10.268;2023-06-26T01:02:13;16.40;94.90
6788;DHT22;3431;47.966;10.268;2023-06-26T01:02:41;16.40;94.90
6788;DHT22;3431;47.966;10.268;2023-06-26T01:03:03;16.40;94.90
6788;DHT22;3431;47.966;10.268;2023-06-26T01:03:25;16.40;95.00
6788;DHT22;3431;47.966;10.268;2023-06-26T01:03:49;16.40;95.00
6788;DHT22;3431;47.966;10.268;2023-06-26T01:04:13;16.40;95.00
6788;DHT22;3431;47.966;10.268;2023-06-26T01:04:39;16.40;95.00
6788;DHT22;3431;47.966;10.268;2023-06-26T01:05:08;16.40;95.00
6788;DHT22;3431;47.966;10.268;2023-06-26T01:05:35;16.40;95.00
6788;DHT22;3431;47.966;10.268;2023-06-26T01:06:00;16.40;95.00
6788;DHT22;3431;47.966;10.268;2023-06-26T01:06:23;16.40;95.00
6788;DHT22;3431;47.966;10.268;2023-06-26T01:06:47;16.40;95.10
6788;DHT22;3431;47.966;10.268;2023-06-26T01:07:10;16.40;95.10
6788;DHT22;3431;47.966;10.268;2023-06-26T01:07:33;16.40;95.10
6788;DHT22;3431;47.966;10.268;2023-06-26T01:07:58;16.40;95.10
6788;DHT22;3431;47.966;10.268;2023-06-26T01:08:20;16.40;95.20
6788;DHT22;3431;47.966;10.268;2023-06-26T01:08:42;16.40;95.20
6788;DHT22;3431;47.966;10.268;2023-06-26T01:09:06;16.40;95.20
6788;DHT22;3431;47.966;10.268;2023-06-26T01:09:27;16.40;95.20
6788;DHT22;3431;47.966;10.268;2023-06-26T01:09:49;16.40;95.30
6788;DHT22;3431;47.966;10.268;2023-06-26T01:10:11;16.40;95.30
6788;DHT22;3431;47.966;10.268;2023-06-26T01:10:33;16.40;95.30
6788;DHT22;3431;47.966;10.268;2023-06-26T01:10:55;16.40;95.30
6788;DHT22;3431;47.966;10.268;2023-06-26T01:11:16;16.40;95.40
6788;DHT22;3431;47.966;10.268;2023-06-26T01:11:39;16.40;95.40
6788;DHT22;3431;47.966;10.268;2023-06-26T01:12:01;16.30;95.40
6788;DHT22;3431;47.966;10.268;2023-06-26T01:12:24;16.50;95.50
6788;DHT22;3431;47.966;10.268;2023-06-26T01:12:46;16.30;95.50
6788;DHT22;3431;47.966;10.268;2023-06-26T01:13:08;16.30;95.50
6788;DHT22;3431;47.966;10.268;2023-06-26T01:13:29;16.30;95.50
6788;DHT22;3431;47.966;10.268;2023-06-26T01:13:54;16.30;95.50
6788;DHT22;3431;47.966;10.268;2023-06-26T01:14:17;16.30;95.50
6788;DHT22;3431;47.966;10.268;2023-06-26T01:14:40;16.30;95.60
6788;DHT22;3431;47.966;10.268;2023-06-26T01:15:02;16.30;95.60
6788;DHT22;3431;47.966;10.268;2023-06-26T01:15:25;16.30;95.70
6788;DHT22;3431;47.966;10.268;2023-06-26T01:15:47;16.30;95.70
6788;DHT22;3431;47.966;10.268;2023-06-26T01:16:09;16.30;95.70
6788;DHT22;3431;47.966;10.268;2023-06-26T01:16:31;16.30;95.70
6788;DHT22;3431;47.966;10.268;2023-06-26T01:16:54;16.30;95.70
6788;DHT22;3431;47.966;10.268;2023-06-26T01:17:19;16.20;95.70
6788;DHT22;3431;47.966;10.268;2023-06-26T01:17:41;16.20;95.80
6788;DHT22;3431;47.966;10.268;2023-06-26T01:18:06;16.20;95.80
6788;DHT22;3431;47.966;10.268;2023-06-26T01:18:29;16.20;95.80
6788;DHT22;3431;47.966;10.268;2023-06-26T01:18:52;16.20;95.90
6788;DHT22;3431;47.966;10.268;2023-06-26T01:19:19;16.20;96.00
6788;DHT22;3431;47.966;10.268;2023-06-26T01:19:46;16.20;96.00
6788;DHT22;3431;47.966;10.268;2023-06-26T01:20:10;16.20;96.00
6788;DHT22;3431;47.966;10.268;2023-06-26T01:20:35;16.20;96.10
6788;DHT22;3431;47.966;10.268;2023-06-26T01:20:58;16.20;96.10
6788;DHT22;3431;47.966;10.268;2023-06-26T01:21:22;16.20;96.20
6788;DHT22;3431;47.966;10.268;2023-06-26T01:21:58;16.20;96.20
6788;DHT22;3431;47.966;10.268;2023-06-26T01:22:27;16.10;96.30
6788;DHT22;3431;47.966;10.268;2023-06-26T01:23:00;16.20;96.40
6788;DHT22;3431;47.966;10.268;2023-06-26T01:23:31;16.10;96.40
6788;DHT22;3431;47.966;10.268;2023-06-26T01:24:05;16.10;96.40
6788;DHT22;3431;47.966;10.268;2023-06-26T01:24:33;16.10;96.50
6788;DHT22;3431;47.966;10.268;2023-06-26T01:25:10;16.10;96.80
6788;DHT22;3431;47.966;10.268;2023-06-26T01:25:44;16.10;96.60
6788;DHT22;3431;47.966;10.268;2023-06-26T01:26:17;16.10;96.60
6788;DHT22;3431;47.966;10.268;2023-06-26T01:26:40;16.10;96.70
6788;DHT22;3431;47.966;10.268;2023-06-26T01:27:05;16.10;96.70
6788;DHT22;3431;47.966;10.268;2023-06-26T01:27:28;16.10;96.80
6788;DHT22;3431;47.966;10.268;2023-06-26T01:27:55;16.10;96.80
6788;DHT22;3431;47.966;10.268;2023-06-26T01:28:19;16.10;96.90
6788;DHT22;3431;47.966;10.268;2023-06-26T01:28:43;16.10;96.90
6788;DHT22;3431;47.966;10.268;2023-06-26T01:29:06;16.10;96.90
6788;DHT22;3431;47.966;10.268;2023-06-26T01:29:30;16.10;96.90
6788;DHT22;3431;47.966;10.268;2023-06-26T01:29:55;16.10;97.00
6788;DHT22;3431;47.966;10.268;2023-06-26T01:30:18;16.10;97.10
6788;DHT22;3431;47.966;10.268;2023-06-26T01:30:42;16.10;97.10
6788;DHT22;3431;47.966;10.268;2023-06-26T01:31:05;16.00;97.10
6788;DHT22;3431;47.966;10.268;2023-06-26T01:31:29;16.10;97.20
6788;DHT22;3431;47.966;10.268;2023-06-26T01:31:51;16.10;97.20
6788;DHT22;3431;47.966;10.268;2023-06-26T01:32:14;16.10;97.20
6788;DHT22;3431;47.966;10.268;2023-06-26T01:32:36;16.10;97.20
6788;DHT22;3431;47.966;10.268;2023-06-26T01:32:58;16.10;97.20
6788;DHT22;3431;47.966;10.268;2023-06-26T01:33:20;16.10;97.30
6788;DHT22;3431;47.966;10.268;2023-06-26T01:33:41;16.10;97.30
6788;DHT22;3431;47.966;10.268;2023-06-26T01:34:04;16.10;97.30
6788;DHT22;3431;47.966;10.268;2023-06-26T01:34:27;16.10;97.30
6788;DHT22;3431;47.966;10.268;2023-06-26T01:34:48;16.10;97.30
6788;DHT22;3431;47.966;10.268;2023-06-26T01:35:11;16.00;97.30
6788;DHT22;3431;47.966;10.268;2023-06-26T01:35:33;16.10;97.30
6788;DHT22;3431;47.966;10.268;2023-06-26T01:35:55;16.10;97.40
6788;DHT22;3431;47.966;10.268;2023-06-26T01:36:18;16.00;97.40
6788;DHT22;3431;47.966;10.268;2023-06-26T01:36:40;16.00;97.40
6788;DHT22;3431;47.966;10.268;2023-06-26T01:37:01;16.10;97.50
6788;DHT22;3431;47.966;10.268;2023-06-26T01:37:23;16.10;97.50
6788;DHT22;3431;47.966;10.268;2023-06-26T01:37:44;16.10;97.50
6788;DHT22;3431;47.966;10.268;2023-06-26T01:38:13;16.10;97.50
6788;DHT22;3431;47.966;10.268;2023-06-26T01:38:36;16.10;97.50
6788;DHT22;3431;47.966;10.268;2023-06-26T01:38:58;16.10;97.60
6788;DHT22;3431;47.966;10.268;2023-06-26T01:39:19;16.10;97.60
6788;DHT22;3431;47.966;10.268;2023-06-26T01:39:42;16.00;97.50
6788;DHT22;3431;47.966;10.268;2023-06-26T01:40:04;16.10;97.60
6788;DHT22;3431;47.966;10.268;2023-06-26T01:40:26;16.10;97.60
6788;DHT22;3431;47.966;10.268;2023-06-26T01:40:48;16.10;97.60
6788;DHT22;3431;47.966;10.268;2023-06-26T01:41:10;16.00;97.60
6788;DHT22;3431;47.966;10.268;2023-06-26T01:41:34;16.10;97.70
6788;DHT22;3431;47.966;10.268;2023-06-26T01:41:57;16.10;97.70
6788;DHT22;3431;47.966;10.268;2023-06-26T01:42:18;16.10;97.70
6788;DHT22;3431;47.966;10.268;2023-06-26T01:42:40;16.00;97.60
6788;DHT22;3431;47.966;10.268;2023-06-26T01:43:03;16.10;98.00
6788;DHT22;3431;47.966;10.268;2023-06-26T01:43:31;16.00;98.00
6788;DHT22;3431;47.966;10.268;2023-06-26T01:44:03;16.00;97.70
6788;DHT22;3431;47.966;10.268;2023-06-26T01:44:29;16.00;97.70
6788;DHT22;3431;47.966;10.268;2023-06-26T01:44:55;16.00;97.80
6788;DHT22;3431;47.966;10.268;2023-06-26T01:45:23;16.00;97.80
6788;DHT22;3431;47.966;10.268;2023-06-26T01:45:46;16.00;97.80
6788;DHT22;3431;47.966;10.268;2023-06-26T01:46:18;16.00;97.80
6788;DHT22;3431;47.966;10.268;2023-06-26T01:46:49;16.00;97.90
6788;DHT22;3431;47.966;10.268;2023-06-26T01:47:16;16.00;97.90
6788;DHT22;3431;47.966;10.268;2023-06-26T01:47:44;16.00;97.90
6788;DHT22;3431;47.966;10.268;2023-06-26T01:48:12;16.00;97.90
6788;DHT22;3431;47.966;10.268;2023-06-26T01:48:43;16.00;98.00
6788;DHT22;3431;47.966;10.268;2023-06-26T01:49:11;16.00;98.00
6788;DHT22;3431;47.966;10.268;2023-06-26T01:49:41;16.00;97.90
6788;DHT22;3431;47.966;10.268;2023-06-26T01:50:11;16.10;97.90
6788;DHT22;3431;47.966;10.268;2023-06-26T01:50:33;16.00;97.90
6788;DHT22;3431;47.966;10.268;2023-06-26T01:50:58;16.00;98.20
6788;DHT22;3431;47.966;10.268;2023-06-26T01:51:24;16.10;97.90
6788;DHT22;3431;47.966;10.268;2023-06-26T01:51:53;16.10;97.90
6788;DHT22;3431;47.966;10.268;2023-06-26T01:52:20;16.00;98.20
6788;DHT22;3431;47.966;10.268;2023-06-26T01:52:48;16.10;97.90
6788;DHT22;3431;47.966;10.268;2023-06-26T01:53:15;16.10;97.90
6788;DHT22;3431;47.966;10.268;2023-06-26T01:53:41;16.10;97.90
6788;DHT22;3431;47.966;10.268;2023-06-26T01:54:08;16.10;97.90
6788;DHT22;3431;47.966;10.268;2023-06-26T01:54:35;16.10;98.00
6788;DHT22;3431;47.966;10.268;2023-06-26T01:55:02;16.10;97.90
6788;DHT22;3431;47.966;10.268;2023-06-26T01:55:31;16.10;98.30
6788;DHT22;3431;47.966;10.268;2023-06-26T01:55:59;16.10;98.00
6788;DHT22;3431;47.966;10.268;2023-06-26T01:56:24;16.10;98.00
6788;DHT22;3431;47.966;10.268;2023-06-26T01:56:49;16.10;98.00
6788;DHT22;3431;47.966;10.268;2023-06-26T01:57:16;16.00;98.00
6788;DHT22;3431;47.966;10.268;2023-06-26T01:57:40;16.10;98.10
6788;DHT22;3431;47.966;10.268;2023-06-26T01:58:03;16.00;98.00
6788;DHT22;3431;47.966;10.268;2023-06-26T01:58:26;16.10;98.10
6788;DHT22;3431;47.966;10.268;2023-06-26T01:58:49;16.10;98.10
6788;DHT22;3431;47.966;10.268;2023-06-26T01:59:14;16.10;98.10
6788;DHT22;3431;47.966;10.268;2023-06-26T01:59:37;16.10;98.10
6788;DHT22;3431;47.966;10.268;2023-06-26T02:00:01;16.00;98.10
6788;DHT22;3431;47.966;10.268;2023-06-26T02:00:35;16.10;98.10
6788;DHT22;3431;47.966;10.268;2023-06-26T02:00:57;16.10;98.20
6788;DHT22;3431;47.966;10.268;2023-06-26T02:01:18;16.10;98.20
6788;DHT22;3431;47.966;10.268;2023-06-26T02:01:41;16.10;98.20
6788;DHT22;3431;47.966;10.268;2023-06-26T02:02:06;16.10;98.20
6788;DHT22;3431;47.966;10.268;2023-06-26T02:02:29;16.10;98.20
6788;DHT22;3431;47.966;10.268;2023-06-26T02:02:51;16.10;98.20
6788;DHT22;3431;47.966;10.268;2023-06-26T02:03:14;16.10;98.20
6788;DHT22;3431;47.966;10.268;2023-06-26T02:03:36;16.10;98.20
6788;DHT22;3431;47.966;10.268;2023-06-26T02:03:57;16.10;98.30
6788;DHT22;3431;47.966;10.268;2023-06-26T02:04:19;16.10;98.30
6788;DHT22;3431;47.966;10.268;2023-06-26T02:04:41;16.10;98.30
6788;DHT22;3431;47.966;10.268;2023-06-26T02:05:03;16.10;98.30
6788;DHT22;3431;47.966;10.268;2023-06-26T02:05:24;16.10;98.30
6788;DHT22;3431;47.966;10.268;2023-06-26T02:05:47;16.10;98.30
6788;DHT22;3431;47.966;10.268;2023-06-26T02:06:09;16.10;98.30
6788;DHT22;3431;47.966;10.268;2023-06-26T02:06:30;16.10;98.40
6788;DHT22;3431;47.966;10.268;2023-06-26T02:06:54;16.10;98.40
6788;DHT22;3431;47.966;10.268;2023-06-26T02:07:17;16.10;98.40
6788;DHT22;3431;47.966;10.268;2023-06-26T02:07:38;16.00;98.40
6788;DHT22;3431;47.966;10.268;2023-06-26T02:08:00;16.10;98.50
6788;DHT22;3431;47.966;10.268;2023-06-26T02:08:25;16.10;98.50
6788;DHT22;3431;47.966;10.268;2023-06-26T02:08:51;16.10;98.50
6788;DHT22;3431;47.966;10.268;2023-06-26T02:09:13;16.10;98.50
6788;DHT22;3431;47.966;10.268;2023-06-26T02:09:34;16.00;98.50
6788;DHT22;3431;47.966;10.268;2023-06-26T02:09:56;16.00;98.50
6788;DHT22;3431;47.966;10.268;2023-06-26T02:10:18;16.00;98.50
6788;DHT22;3431;47.966;10.268;2023-06-26T02:10:40;16.00;98.50
6788;DHT22;3431;47.966;10.268;2023-06-26T02:11:02;16.00;98.50
6788;DHT22;3431;47.966;10.268;2023-06-26T02:11:23;16.00;98.60
6788;DHT22;3431;47.966;10.268;2023-06-26T02:11:45;16.00;98.70
6788;DHT22;3431;47.966;10.268;2023-06-26T02:12:09;16.00;98.70
6788;DHT22;3431;47.966;10.268;2023-06-26T02:12:31;16.00;98.70
6788;DHT22;3431;47.966;10.268;2023-06-26T02:12:52;16.00;98.70
6788;DHT22;3431;47.966;10.268;2023-06-26T02:13:15;15.90;98.70
6788;DHT22;3431;47.966;10.268;2023-06-26T02:13:36;16.00;98.80
6788;DHT22;3431;47.966;10.268;2023-06-26T02:13:58;16.00;98.80
6788;DHT22;3431;47.966;10.268;2023-06-26T02:14:19;15.90;98.90
6788;DHT22;3431;47.966;10.268;2023-06-26T02:14:41;16.00;98.90
6788;DHT22;3431;47.966;10.268;2023-06-26T02:15:04;16.00;98.90
6788;DHT22;3431;47.966;10.268;2023-06-26T02:15:28;16.00;99.00
6788;DHT22;3431;47.966;10.268;2023-06-26T02:15:49;16.00;99.00
6788;DHT22;3431;47.966;10.268;2023-06-26T02:16:12;15.90;99.00
6788;DHT22;3431;47.966;10.268;2023-06-26T02:16:37;15.90;99.00
6788;DHT22;3431;47.966;10.268;2023-06-26T02:16:58;15.90;99.00
6788;DHT22;3431;47.966;10.268;2023-06-26T02:17:21;15.90;99.00
6788;DHT22;3431;47.966;10.268;2023-06-26T02:17:43;16.00;99.10
6788;DHT22;3431;47.966;10.268;2023-06-26T02:18:09;15.90;99.00
6788;DHT22;3431;47.966;10.268;2023-06-26T02:18:31;15.90;99.10
6788;DHT22;3431;47.966;10.268;2023-06-26T02:18:53;15.90;99.10
6788;DHT22;3431;47.966;10.268;2023-06-26T02:19:18;15.90;99.10
6788;DHT22;3431;47.966;10.268;2023-06-26T02:19:44;15.90;99.20
6788;DHT22;3431;47.966;10.268;2023-06-26T02:20:09;15.90;99.20
6788;DHT22;3431;47.966;10.268;2023-06-26T02:20:31;15.90;99.20
6788;DHT22;3431;47.966;10.268;2023-06-26T02:20:55;15.90;99.20
6788;DHT22;3431;47.966;10.268;2023-06-26T02:21:17;15.80;99.20
6788;DHT22;3431;47.966;10.268;2023-06-26T02:21:39;15.80;99.20
6788;DHT22;3431;47.966;10.268;2023-06-26T02:22:00;15.90;99.30
6788;DHT22;3431;47.966;10.268;2023-06-26T02:22:22;15.80;99.30
6788;DHT22;3431;47.966;10.268;2023-06-26T02:22:44;15.90;99.70
6788;DHT22;3431;47.966;10.268;2023-06-26T02:23:06;15.90;99.30
6788;DHT22;3431;47.966;10.268;2023-06-26T02:23:30;15.90;99.30
6788;DHT22;3431;47.966;10.268;2023-06-26T02:23:52;15.90;99.30
6788;DHT22;3431;47.966;10.268;2023-06-26T02:24:13;15.90;99.60
6788;DHT22;3431;47.966;10.268;2023-06-26T02:24:35;15.90;99.40
6788;DHT22;3431;47.966;10.268;2023-06-26T02:24:58;15.90;99.30
6788;DHT22;3431;47.966;10.268;2023-06-26T02:25:20;15.90;99.40
6788;DHT22;3431;47.966;10.268;2023-06-26T02:25:42;15.90;99.40
6788;DHT22;3431;47.966;10.268;2023-06-26T02:26:04;15.90;99.40
6788;DHT22;3431;47.966;10.268;2023-06-26T02:26:26;15.80;99.30
6788;DHT22;3431;47.966;10.268;2023-06-26T02:26:49;15.90;99.30
6788;DHT22;3431;47.966;10.268;2023-06-26T02:27:12;15.90;99.30
6788;DHT22;3431;47.966;10.268;2023-06-26T02:27:33;15.90;99.30
6788;DHT22;3431;47.966;10.268;2023-06-26T02:27:55;15.90;99.30
6788;DHT22;3431;47.966;10.268;2023-06-26T02:28:16;15.90;99.20
6788;DHT22;3431;47.966;10.268;2023-06-26T02:28:39;16.00;99.30
6788;DHT22;3431;47.966;10.268;2023-06-26T02:29:00;15.90;99.20
6788;DHT22;3431;47.966;10.268;2023-06-26T02:29:22;16.00;99.30